sensor_id;sensor_type;location;lat;lon;timestamp;P1;durP1;ratioP1;P2;durP2;ratioP2
46815;SDS011;32787;53.316;8.670;2023-02-16T00:01:44;76.57;;;35.88;;
46815;SDS011;32787;53.316;8.670;2023-02-16T00:04:15;70.43;;;36.75;;
46815;SDS011;32787;53.316;8.670;2023-02-16T00:06:43;73.22;;;36.05;;
46815;SDS011;32787;53.316;8.670;2023-02-16T00:09:09;72.60;;;37.53;;
46815;SDS011;32787;53.316;8.670;2023-02-16T00:11:35;66.43;;;35.95;;
46815;SDS011;32787;53.316;8.670;2023-02-16T00:14:20;72.15;;;36.58;;
46815;SDS011;32787;53.316;8.670;2023-02-16T00:16:47;68.60;;;35.42;;
46815;SDS011;32787;53.316;8.670;2023-02-16T00:19:15;67.75;;;35.53;;
46815;SDS011;32787;53.316;8.670;2023-02-16T00:21:56;69.78;;;36.55;;
46815;SDS011;32787;53.316;8.670;2023-02-16T00:24:23;67.50;;;34.78;;
46815;SDS011;32787;53.316;8.670;2023-02-16T00:26:50;65.30;;;34.40;;
46815;SDS011;32787;53.316;8.670;2023-02-16T00:29:27;63.20;;;33.85;;
46815;SDS011;32787;53.316;8.670;2023-02-16T00:31:55;66.68;;;34.05;;
46815;SDS011;32787;53.316;8.670;2023-02-16T00:34:27;71.47;;;34.80;;
46815;SDS011;32787;53.316;8.670;2023-02-16T00:37:05;72.90;;;35.85;;
46815;SDS011;32787;53.316;8.670;2023-02-16T00:39:36;73.97;;;36.83;;
46815;SDS011;32787;53.316;8.670;2023-02-16T00:42:06;72.13;;;37.85;;
46815;SDS011;32787;53.316;8.670;2023-02-16T00:44:46;68.95;;;35.53;;
46815;SDS011;32787;53.316;8.670;2023-02-16T00:49:43;78.07;;;37.83;;
46815;SDS011;32787;53.316;8.670;2023-02-16T00:52:15;75.10;;;37.05;;
46815;SDS011;32787;53.316;8.670;2023-02-16T00:54:53;69.35;;;34.75;;
46815;SDS011;32787;53.316;8.670;2023-02-16T00:57:19;79.35;;;36.80;;
46815;SDS011;32787;53.316;8.670;2023-02-16T00:59:45;76.07;;;38.28;;
46815;SDS011;32787;53.316;8.670;2023-02-16T01:02:12;72.03;;;36.17;;
46815;SDS011;32787;53.316;8.670;2023-02-16T01:04:38;76.85;;;37.88;;
46815;SDS011;32787;53.316;8.670;2023-02-16T01:07:11;83.47;;;39.20;;
46815;SDS011;32787;53.316;8.670;2023-02-16T01:09:57;76.65;;;38.20;;
46815;SDS011;32787;53.316;8.670;2023-02-16T01:12:41;77.88;;;38.70;;
46815;SDS011;32787;53.316;8.670;2023-02-16T01:15:09;78.97;;;38.92;;
46815;SDS011;32787;53.316;8.670;2023-02-16T01:17:38;78.53;;;38.40;;
46815;SDS011;32787;53.316;8.670;2023-02-16T01:20:09;76.68;;;35.45;;
46815;SDS011;32787;53.316;8.670;2023-02-16T01:22:39;79.82;;;38.58;;
46815;SDS011;32787;53.316;8.670;2023-02-16T01:25:05;71.47;;;36.75;;
46815;SDS011;32787;53.316;8.670;2023-02-16T01:27:31;77.78;;;36.58;;
46815;SDS011;32787;53.316;8.670;2023-02-16T01:29:57;74.50;;;37.25;;
46815;SDS011;32787;53.316;8.670;2023-02-16T01:32:23;82.47;;;39.58;;
46815;SDS011;32787;53.316;8.670;2023-02-16T01:34:48;79.03;;;37.00;;
46815;SDS011;32787;53.316;8.670;2023-02-16T01:37:14;75.72;;;37.70;;
46815;SDS011;32787;53.316;8.670;2023-02-16T01:39:40;76.20;;;38.38;;
46815;SDS011;32787;53.316;8.670;2023-02-16T01:44:57;75.95;;;37.45;;
46815;SDS011;32787;53.316;8.670;2023-02-16T01:47:40;77.57;;;37.45;;
46815;SDS011;32787;53.316;8.670;2023-02-16T01:50:21;79.47;;;37.97;;
46815;SDS011;32787;53.316;8.670;2023-02-16T01:52:51;76.05;;;35.78;;
46815;SDS011;32787;53.316;8.670;2023-02-16T01:55:25;78.32;;;38.15;;
46815;SDS011;32787;53.316;8.670;2023-02-16T02:04:10;74.50;;;37.85;;
46815;SDS011;32787;53.316;8.670;2023-02-16T02:06:57;70.10;;;36.58;;
46815;SDS011;32787;53.316;8.670;2023-02-16T02:09:29;82.95;;;37.38;;
46815;SDS011;32787;53.316;8.670;2023-02-16T02:14:57;81.40;;;39.13;;
46815;SDS011;32787;53.316;8.670;2023-02-16T02:17:23;75.47;;;36.58;;
46815;SDS011;32787;53.316;8.670;2023-02-16T02:19:52;76.30;;;37.72;;
46815;SDS011;32787;53.316;8.670;2023-02-16T02:25:39;79.38;;;37.60;;
46815;SDS011;32787;53.316;8.670;2023-02-16T02:37:02;77.30;;;37.58;;
46815;SDS011;32787;53.316;8.670;2023-02-16T02:39:50;73.80;;;36.58;;
46815;SDS011;32787;53.316;8.670;2023-02-16T02:45:07;74.63;;;36.35;;
46815;SDS011;32787;53.316;8.670;2023-02-16T02:47:40;71.40;;;35.65;;
46815;SDS011;32787;53.316;8.670;2023-02-16T02:53:02;71.82;;;35.05;;
46815;SDS011;32787;53.316;8.670;2023-02-16T02:55:32;69.20;;;35.33;;
46815;SDS011;32787;53.316;8.670;2023-02-16T03:01:08;73.55;;;35.05;;
46815;SDS011;32787;53.316;8.670;2023-02-16T03:03:37;76.20;;;36.25;;
46815;SDS011;32787;53.316;8.670;2023-02-16T03:06:08;74.00;;;36.88;;
46815;SDS011;32787;53.316;8.670;2023-02-16T03:08:39;74.70;;;36.78;;
46815;SDS011;32787;53.316;8.670;2023-02-16T03:11:09;72.07;;;36.90;;
46815;SDS011;32787;53.316;8.670;2023-02-16T03:13:58;82.93;;;38.35;;
46815;SDS011;32787;53.316;8.670;2023-02-16T03:16:38;72.72;;;36.30;;
46815;SDS011;32787;53.316;8.670;2023-02-16T03:19:08;68.93;;;35.15;;
46815;SDS011;32787;53.316;8.670;2023-02-16T03:21:54;72.82;;;36.35;;
46815;SDS011;32787;53.316;8.670;2023-02-16T03:24:39;72.60;;;36.75;;
46815;SDS011;32787;53.316;8.670;2023-02-16T03:27:26;75.15;;;38.00;;
46815;SDS011;32787;53.316;8.670;2023-02-16T03:33:14;64.68;;;34.83;;
46815;SDS011;32787;53.316;8.670;2023-02-16T03:35:40;72.10;;;36.40;;
46815;SDS011;32787;53.316;8.670;2023-02-16T03:38:07;75.63;;;37.58;;
46815;SDS011;32787;53.316;8.670;2023-02-16T03:40:32;74.13;;;35.03;;
46815;SDS011;32787;53.316;8.670;2023-02-16T03:43:01;77.72;;;36.28;;
46815;SDS011;32787;53.316;8.670;2023-02-16T03:45:29;69.60;;;36.50;;
46815;SDS011;32787;53.316;8.670;2023-02-16T03:47:56;72.85;;;37.42;;
46815;SDS011;32787;53.316;8.670;2023-02-16T03:50:22;70.55;;;36.83;;
46815;SDS011;32787;53.316;8.670;2023-02-16T03:52:48;75.10;;;36.58;;
46815;SDS011;32787;53.316;8.670;2023-02-16T03:55:13;71.93;;;37.65;;
46815;SDS011;32787;53.316;8.670;2023-02-16T03:57:39;77.75;;;37.35;;
46815;SDS011;32787;53.316;8.670;2023-02-16T04:00:05;72.70;;;36.40;;
46815;SDS011;32787;53.316;8.670;2023-02-16T04:02:31;73.22;;;36.10;;
46815;SDS011;32787;53.316;8.670;2023-02-16T04:04:57;74.13;;;37.72;;
46815;SDS011;32787;53.316;8.670;2023-02-16T04:07:23;80.18;;;38.22;;
46815;SDS011;32787;53.316;8.670;2023-02-16T04:09:49;81.07;;;38.88;;
46815;SDS011;32787;53.316;8.670;2023-02-16T04:12:14;75.28;;;37.33;;
46815;SDS011;32787;53.316;8.670;2023-02-16T04:14:58;72.45;;;38.03;;
46815;SDS011;32787;53.316;8.670;2023-02-16T04:17:24;71.65;;;36.58;;
46815;SDS011;32787;53.316;8.670;2023-02-16T04:19:50;73.82;;;37.03;;
46815;SDS011;32787;53.316;8.670;2023-02-16T04:22:15;75.15;;;36.92;;
46815;SDS011;32787;53.316;8.670;2023-02-16T04:24:41;74.30;;;37.45;;
46815;SDS011;32787;53.316;8.670;2023-02-16T04:27:06;77.20;;;38.05;;
46815;SDS011;32787;53.316;8.670;2023-02-16T04:29:32;82.68;;;38.58;;
46815;SDS011;32787;53.316;8.670;2023-02-16T04:31:57;73.20;;;38.50;;
46815;SDS011;32787;53.316;8.670;2023-02-16T04:34:23;76.85;;;37.97;;
46815;SDS011;32787;53.316;8.670;2023-02-16T04:36:49;77.45;;;38.58;;
46815;SDS011;32787;53.316;8.670;2023-02-16T04:39:14;73.97;;;38.97;;
46815;SDS011;32787;53.316;8.670;2023-02-16T04:41:40;74.25;;;38.17;;
46815;SDS011;32787;53.316;8.670;2023-02-16T04:44:06;76.90;;;37.55;;
46815;SDS011;32787;53.316;8.670;2023-02-16T04:46:31;77.40;;;37.35;;
46815;SDS011;32787;53.316;8.670;2023-02-16T04:48:57;73.00;;;38.33;;
46815;SDS011;32787;53.316;8.670;2023-02-16T04:51:22;80.45;;;39.75;;
46815;SDS011;32787;53.316;8.670;2023-02-16T04:53:48;78.88;;;39.88;;
46815;SDS011;32787;53.316;8.670;2023-02-16T04:56:23;72.93;;;38.85;;
46815;SDS011;32787;53.316;8.670;2023-02-16T04:58:48;84.68;;;38.80;;
46815;SDS011;32787;53.316;8.670;2023-02-16T05:01:17;81.53;;;38.47;;
46815;SDS011;32787;53.316;8.670;2023-02-16T05:03:44;75.93;;;38.28;;
46815;SDS011;32787;53.316;8.670;2023-02-16T05:06:10;81.43;;;38.90;;
46815;SDS011;32787;53.316;8.670;2023-02-16T05:08:35;78.07;;;38.38;;
46815;SDS011;32787;53.316;8.670;2023-02-16T05:11:01;78.60;;;39.03;;
46815;SDS011;32787;53.316;8.670;2023-02-16T05:13:45;76.93;;;38.60;;
46815;SDS011;32787;53.316;8.670;2023-02-16T05:16:29;80.93;;;38.78;;
46815;SDS011;32787;53.316;8.670;2023-02-16T05:18:54;80.95;;;39.70;;
46815;SDS011;32787;53.316;8.670;2023-02-16T05:21:20;80.15;;;40.22;;
46815;SDS011;32787;53.316;8.670;2023-02-16T05:23:55;81.13;;;38.70;;
46815;SDS011;32787;53.316;8.670;2023-02-16T05:26:24;73.97;;;37.53;;
46815;SDS011;32787;53.316;8.670;2023-02-16T05:28:50;74.00;;;38.45;;
46815;SDS011;32787;53.316;8.670;2023-02-16T05:31:16;78.35;;;39.67;;
46815;SDS011;32787;53.316;8.670;2023-02-16T05:33:42;75.97;;;38.83;;
46815;SDS011;32787;53.316;8.670;2023-02-16T05:36:07;82.05;;;39.22;;
46815;SDS011;32787;53.316;8.670;2023-02-16T05:38:33;81.00;;;39.97;;
46815;SDS011;32787;53.316;8.670;2023-02-16T05:40:59;79.18;;;39.78;;
46815;SDS011;32787;53.316;8.670;2023-02-16T05:43:24;81.45;;;39.95;;
46815;SDS011;32787;53.316;8.670;2023-02-16T05:45:50;82.20;;;40.78;;
46815;SDS011;32787;53.316;8.670;2023-02-16T05:48:15;72.68;;;38.08;;
46815;SDS011;32787;53.316;8.670;2023-02-16T05:50:41;74.35;;;37.47;;
46815;SDS011;32787;53.316;8.670;2023-02-16T05:53:07;79.93;;;40.20;;
46815;SDS011;32787;53.316;8.670;2023-02-16T05:55:32;83.10;;;39.58;;
46815;SDS011;32787;53.316;8.670;2023-02-16T05:57:58;79.93;;;39.30;;
46815;SDS011;32787;53.316;8.670;2023-02-16T06:00:24;74.30;;;39.42;;
46815;SDS011;32787;53.316;8.670;2023-02-16T06:02:49;73.90;;;38.88;;
46815;SDS011;32787;53.316;8.670;2023-02-16T06:05:15;79.82;;;40.28;;
46815;SDS011;32787;53.316;8.670;2023-02-16T06:07:40;77.43;;;39.33;;
46815;SDS011;32787;53.316;8.670;2023-02-16T06:10:06;75.97;;;38.53;;
46815;SDS011;32787;53.316;8.670;2023-02-16T06:12:32;80.97;;;39.30;;
46815;SDS011;32787;53.316;8.670;2023-02-16T06:14:58;75.47;;;38.90;;
46815;SDS011;32787;53.316;8.670;2023-02-16T06:17:25;74.13;;;37.75;;
46815;SDS011;32787;53.316;8.670;2023-02-16T06:19:50;72.35;;;38.20;;
46815;SDS011;32787;53.316;8.670;2023-02-16T06:22:16;70.78;;;37.95;;
46815;SDS011;32787;53.316;8.670;2023-02-16T06:24:41;79.18;;;40.40;;
46815;SDS011;32787;53.316;8.670;2023-02-16T06:27:07;72.40;;;37.13;;
46815;SDS011;32787;53.316;8.670;2023-02-16T06:29:33;74.60;;;39.83;;
46815;SDS011;32787;53.316;8.670;2023-02-16T06:31:58;77.57;;;40.22;;
46815;SDS011;32787;53.316;8.670;2023-02-16T06:34:24;72.28;;;38.05;;
46815;SDS011;32787;53.316;8.670;2023-02-16T06:36:50;78.13;;;40.28;;
46815;SDS011;32787;53.316;8.670;2023-02-16T06:39:15;72.78;;;36.72;;
46815;SDS011;32787;53.316;8.670;2023-02-16T06:41:41;79.10;;;38.90;;
46815;SDS011;32787;53.316;8.670;2023-02-16T06:44:08;73.72;;;39.17;;
46815;SDS011;32787;53.316;8.670;2023-02-16T06:46:36;83.93;;;41.75;;
46815;SDS011;32787;53.316;8.670;2023-02-16T06:49:02;76.35;;;39.40;;
46815;SDS011;32787;53.316;8.670;2023-02-16T06:51:28;81.28;;;40.35;;
46815;SDS011;32787;53.316;8.670;2023-02-16T06:53:54;76.72;;;39.45;;
46815;SDS011;32787;53.316;8.670;2023-02-16T06:56:19;76.20;;;39.50;;
46815;SDS011;32787;53.316;8.670;2023-02-16T06:58:45;73.75;;;38.80;;
46815;SDS011;32787;53.316;8.670;2023-02-16T07:01:11;78.32;;;39.17;;
46815;SDS011;32787;53.316;8.670;2023-02-16T07:03:37;76.32;;;39.88;;
46815;SDS011;32787;53.316;8.670;2023-02-16T07:06:02;81.47;;;40.05;;
46815;SDS011;32787;53.316;8.670;2023-02-16T07:08:28;70.65;;;38.20;;
46815;SDS011;32787;53.316;8.670;2023-02-16T07:10:54;70.88;;;38.50;;
46815;SDS011;32787;53.316;8.670;2023-02-16T07:13:20;75.13;;;40.50;;
46815;SDS011;32787;53.316;8.670;2023-02-16T07:15:45;73.70;;;38.85;;
46815;SDS011;32787;53.316;8.670;2023-02-16T07:18:11;69.28;;;38.65;;
46815;SDS011;32787;53.316;8.670;2023-02-16T07:20:36;73.32;;;39.05;;
46815;SDS011;32787;53.316;8.670;2023-02-16T07:23:02;71.63;;;37.30;;
46815;SDS011;32787;53.316;8.670;2023-02-16T07:25:28;71.80;;;39.28;;
46815;SDS011;32787;53.316;8.670;2023-02-16T07:27:54;74.47;;;40.38;;
46815;SDS011;32787;53.316;8.670;2023-02-16T07:30:20;71.60;;;37.78;;
46815;SDS011;32787;53.316;8.670;2023-02-16T07:32:46;69.88;;;38.35;;
46815;SDS011;32787;53.316;8.670;2023-02-16T07:35:12;73.43;;;39.38;;
46815;SDS011;32787;53.316;8.670;2023-02-16T07:37:38;72.60;;;37.30;;
46815;SDS011;32787;53.316;8.670;2023-02-16T07:40:04;74.47;;;37.47;;
46815;SDS011;32787;53.316;8.670;2023-02-16T07:42:30;74.25;;;38.33;;
46815;SDS011;32787;53.316;8.670;2023-02-16T07:44:57;77.68;;;39.30;;
46815;SDS011;32787;53.316;8.670;2023-02-16T07:47:22;74.97;;;38.72;;
46815;SDS011;32787;53.316;8.670;2023-02-16T07:49:48;73.95;;;39.03;;
46815;SDS011;32787;53.316;8.670;2023-02-16T07:52:14;68.68;;;38.20;;
46815;SDS011;32787;53.316;8.670;2023-02-16T07:54:40;72.07;;;38.55;;
46815;SDS011;32787;53.316;8.670;2023-02-16T07:57:05;70.60;;;38.33;;
46815;SDS011;32787;53.316;8.670;2023-02-16T07:59:31;73.72;;;38.60;;
46815;SDS011;32787;53.316;8.670;2023-02-16T08:01:57;74.10;;;39.60;;
46815;SDS011;32787;53.316;8.670;2023-02-16T08:04:22;74.50;;;38.83;;
46815;SDS011;32787;53.316;8.670;2023-02-16T08:06:48;70.00;;;38.42;;
46815;SDS011;32787;53.316;8.670;2023-02-16T08:09:14;69.55;;;37.83;;
46815;SDS011;32787;53.316;8.670;2023-02-16T08:11:40;71.07;;;37.83;;
46815;SDS011;32787;53.316;8.670;2023-02-16T08:14:06;80.20;;;37.75;;
46815;SDS011;32787;53.316;8.670;2023-02-16T08:16:31;74.18;;;37.72;;
46815;SDS011;32787;53.316;8.670;2023-02-16T08:18:58;76.30;;;38.78;;
46815;SDS011;32787;53.316;8.670;2023-02-16T08:21:27;68.57;;;36.67;;
46815;SDS011;32787;53.316;8.670;2023-02-16T08:24:04;70.25;;;37.45;;
46815;SDS011;32787;53.316;8.670;2023-02-16T08:26:35;71.22;;;37.53;;
46815;SDS011;32787;53.316;8.670;2023-02-16T08:29:02;68.70;;;36.80;;
46815;SDS011;32787;53.316;8.670;2023-02-16T08:31:29;68.57;;;36.20;;
46815;SDS011;32787;53.316;8.670;2023-02-16T08:33:56;68.55;;;36.45;;
46815;SDS011;32787;53.316;8.670;2023-02-16T08:36:28;68.60;;;37.45;;
46815;SDS011;32787;53.316;8.670;2023-02-16T08:39:03;62.35;;;35.35;;
46815;SDS011;32787;53.316;8.670;2023-02-16T08:41:32;72.35;;;37.83;;
46815;SDS011;32787;53.316;8.670;2023-02-16T08:43:59;67.80;;;35.53;;
46815;SDS011;32787;53.316;8.670;2023-02-16T08:46:26;66.25;;;36.10;;
46815;SDS011;32787;53.316;8.670;2023-02-16T08:48:56;66.88;;;36.55;;
46815;SDS011;32787;53.316;8.670;2023-02-16T08:51:24;68.30;;;37.63;;
46815;SDS011;32787;53.316;8.670;2023-02-16T08:53:55;68.03;;;38.40;;
46815;SDS011;32787;53.316;8.670;2023-02-16T08:56:22;70.38;;;38.83;;
46815;SDS011;32787;53.316;8.670;2023-02-16T08:58:48;66.80;;;37.30;;
46815;SDS011;32787;53.316;8.670;2023-02-16T09:01:14;67.03;;;38.50;;
46815;SDS011;32787;53.316;8.670;2023-02-16T09:03:40;72.50;;;37.80;;
46815;SDS011;32787;53.316;8.670;2023-02-16T09:06:09;69.85;;;36.40;;
46815;SDS011;32787;53.316;8.670;2023-02-16T09:08:36;65.05;;;36.15;;
46815;SDS011;32787;53.316;8.670;2023-02-16T09:11:02;67.20;;;37.30;;
46815;SDS011;32787;53.316;8.670;2023-02-16T09:13:47;67.60;;;35.90;;
46815;SDS011;32787;53.316;8.670;2023-02-16T09:16:15;72.20;;;36.65;;
46815;SDS011;32787;53.316;8.670;2023-02-16T09:18:42;70.90;;;37.80;;
46815;SDS011;32787;53.316;8.670;2023-02-16T09:21:10;68.57;;;37.35;;
46815;SDS011;32787;53.316;8.670;2023-02-16T09:23:39;68.55;;;36.85;;
46815;SDS011;32787;53.316;8.670;2023-02-16T09:26:06;62.05;;;36.67;;
46815;SDS011;32787;53.316;8.670;2023-02-16T09:28:32;65.97;;;36.83;;
46815;SDS011;32787;53.316;8.670;2023-02-16T09:30:59;68.32;;;36.72;;
46815;SDS011;32787;53.316;8.670;2023-02-16T09:33:24;65.82;;;35.88;;
46815;SDS011;32787;53.316;8.670;2023-02-16T09:35:51;71.20;;;36.90;;
46815;SDS011;32787;53.316;8.670;2023-02-16T09:38:17;69.30;;;37.90;;
46815;SDS011;32787;53.316;8.670;2023-02-16T09:40:45;61.08;;;36.92;;
46815;SDS011;32787;53.316;8.670;2023-02-16T09:45:43;65.22;;;37.17;;
46815;SDS011;32787;53.316;8.670;2023-02-16T09:48:20;67.20;;;37.03;;
46815;SDS011;32787;53.316;8.670;2023-02-16T09:50:59;61.28;;;35.00;;
46815;SDS011;32787;53.316;8.670;2023-02-16T09:53:34;64.68;;;35.90;;
46815;SDS011;32787;53.316;8.670;2023-02-16T09:56:07;65.28;;;35.53;;
46815;SDS011;32787;53.316;8.670;2023-02-16T09:58:45;63.47;;;37.10;;
46815;SDS011;32787;53.316;8.670;2023-02-16T10:06:33;62.95;;;36.95;;
46815;SDS011;32787;53.316;8.670;2023-02-16T10:09:08;66.03;;;37.38;;
46815;SDS011;32787;53.316;8.670;2023-02-16T10:11:40;61.10;;;36.20;;
46815;SDS011;32787;53.316;8.670;2023-02-16T10:20:22;65.45;;;36.85;;
46815;SDS011;32787;53.316;8.670;2023-02-16T10:22:48;67.70;;;37.17;;
46815;SDS011;32787;53.316;8.670;2023-02-16T10:25:33;65.30;;;37.97;;
46815;SDS011;32787;53.316;8.670;2023-02-16T10:28:15;69.20;;;37.72;;
46815;SDS011;32787;53.316;8.670;2023-02-16T10:30:59;66.03;;;37.53;;
46815;SDS011;32787;53.316;8.670;2023-02-16T10:33:43;67.10;;;38.22;;
46815;SDS011;32787;53.316;8.670;2023-02-16T10:36:22;71.72;;;37.58;;
46815;SDS011;32787;53.316;8.670;2023-02-16T10:38:50;70.93;;;37.70;;
46815;SDS011;32787;53.316;8.670;2023-02-16T10:46:29;69.57;;;38.03;;
46815;SDS011;32787;53.316;8.670;2023-02-16T10:48:59;66.68;;;36.70;;
46815;SDS011;32787;53.316;8.670;2023-02-16T10:51:30;73.57;;;38.20;;
46815;SDS011;32787;53.316;8.670;2023-02-16T10:54:02;65.75;;;37.70;;
46815;SDS011;32787;53.316;8.670;2023-02-16T10:59:23;73.13;;;36.30;;
46815;SDS011;32787;53.316;8.670;2023-02-16T11:02:02;70.15;;;39.53;;
46815;SDS011;32787;53.316;8.670;2023-02-16T11:04:49;70.70;;;38.63;;
46815;SDS011;32787;53.316;8.670;2023-02-16T11:07:17;67.15;;;38.00;;
46815;SDS011;32787;53.316;8.670;2023-02-16T11:09:47;73.78;;;39.42;;
46815;SDS011;32787;53.316;8.670;2023-02-16T11:14:53;77.97;;;41.08;;
46815;SDS011;32787;53.316;8.670;2023-02-16T11:17:31;74.63;;;40.00;;
46815;SDS011;32787;53.316;8.670;2023-02-16T11:20:23;75.43;;;41.78;;
46815;SDS011;32787;53.316;8.670;2023-02-16T11:23:12;70.10;;;40.35;;
46815;SDS011;32787;53.316;8.670;2023-02-16T11:25:45;73.30;;;39.95;;
46815;SDS011;32787;53.316;8.670;2023-02-16T11:28:52;83.07;;;44.08;;
46815;SDS011;32787;53.316;8.670;2023-02-16T11:31:30;82.35;;;42.55;;
46815;SDS011;32787;53.316;8.670;2023-02-16T11:44:21;100.60;;;46.97;;
46815;SDS011;32787;53.316;8.670;2023-02-16T11:46:55;102.25;;;46.83;;
46815;SDS011;32787;53.316;8.670;2023-02-16T11:54:51;102.45;;;50.35;;
46815;SDS011;32787;53.316;8.670;2023-02-16T11:57:25;110.47;;;49.28;;
46815;SDS011;32787;53.316;8.670;2023-02-16T11:59:53;101.03;;;49.95;;
46815;SDS011;32787;53.316;8.670;2023-02-16T12:05:30;99.85;;;49.63;;
46815;SDS011;32787;53.316;8.670;2023-02-16T12:08:14;97.82;;;49.85;;
46815;SDS011;32787;53.316;8.670;2023-02-16T12:13:28;94.80;;;47.65;;
46815;SDS011;32787;53.316;8.670;2023-02-16T12:19:05;90.65;;;46.60;;
46815;SDS011;32787;53.316;8.670;2023-02-16T12:27:15;98.07;;;47.83;;
46815;SDS011;32787;53.316;8.670;2023-02-16T12:35:02;99.70;;;49.00;;
46815;SDS011;32787;53.316;8.670;2023-02-16T12:37:44;103.25;;;48.92;;
46815;SDS011;32787;53.316;8.670;2023-02-16T12:40:30;98.80;;;48.95;;
46815;SDS011;32787;53.316;8.670;2023-02-16T12:46:27;101.78;;;49.95;;
46815;SDS011;32787;53.316;8.670;2023-02-16T12:49:01;99.20;;;49.65;;
46815;SDS011;32787;53.316;8.670;2023-02-16T12:52:02;107.25;;;49.17;;
46815;SDS011;32787;53.316;8.670;2023-02-16T12:54:57;108.05;;;49.33;;
46815;SDS011;32787;53.316;8.670;2023-02-16T13:06:10;94.72;;;49.47;;
46815;SDS011;32787;53.316;8.670;2023-02-16T13:14:12;104.05;;;48.63;;
46815;SDS011;32787;53.316;8.670;2023-02-16T13:16:50;93.65;;;49.65;;
46815;SDS011;32787;53.316;8.670;2023-02-16T13:19:21;101.72;;;51.25;;
46815;SDS011;32787;53.316;8.670;2023-02-16T13:27:18;94.05;;;50.00;;
46815;SDS011;32787;53.316;8.670;2023-02-16T13:32:54;93.90;;;49.70;;
46815;SDS011;32787;53.316;8.670;2023-02-16T13:38:13;90.60;;;47.25;;
46815;SDS011;32787;53.316;8.670;2023-02-16T13:44:01;97.00;;;48.65;;
46815;SDS011;32787;53.316;8.670;2023-02-16T13:46:35;98.38;;;48.42;;
46815;SDS011;32787;53.316;8.670;2023-02-16T13:49:05;94.35;;;47.53;;
46815;SDS011;32787;53.316;8.670;2023-02-16T13:51:41;97.15;;;48.40;;
46815;SDS011;32787;53.316;8.670;2023-02-16T13:54:20;88.05;;;47.28;;
46815;SDS011;32787;53.316;8.670;2023-02-16T13:56:52;96.40;;;49.50;;
46815;SDS011;32787;53.316;8.670;2023-02-16T14:01:47;91.68;;;47.55;;
46815;SDS011;32787;53.316;8.670;2023-02-16T14:06:47;85.63;;;47.28;;
46815;SDS011;32787;53.316;8.670;2023-02-16T14:27:48;101.13;;;50.30;;
46815;SDS011;32787;53.316;8.670;2023-02-16T14:30:19;89.78;;;48.50;;
46815;SDS011;32787;53.316;8.670;2023-02-16T14:35:41;92.00;;;47.97;;
46815;SDS011;32787;53.316;8.670;2023-02-16T14:38:26;92.78;;;47.58;;
46815;SDS011;32787;53.316;8.670;2023-02-16T14:40:55;100.25;;;49.47;;
46815;SDS011;32787;53.316;8.670;2023-02-16T14:43:33;94.90;;;47.35;;
46815;SDS011;32787;53.316;8.670;2023-02-16T14:55:12;91.07;;;48.17;;
46815;SDS011;32787;53.316;8.670;2023-02-16T15:00:43;90.75;;;45.97;;
46815;SDS011;32787;53.316;8.670;2023-02-16T15:03:20;90.30;;;46.85;;
46815;SDS011;32787;53.316;8.670;2023-02-16T15:05:49;92.80;;;45.90;;
46815;SDS011;32787;53.316;8.670;2023-02-16T15:08:30;89.85;;;45.53;;
46815;SDS011;32787;53.316;8.670;2023-02-16T15:13:40;89.45;;;45.75;;
46815;SDS011;32787;53.316;8.670;2023-02-16T15:16:07;89.40;;;45.80;;
46815;SDS011;32787;53.316;8.670;2023-02-16T15:18:39;91.28;;;46.08;;
46815;SDS011;32787;53.316;8.670;2023-02-16T15:23:48;92.50;;;47.65;;
46815;SDS011;32787;53.316;8.670;2023-02-16T15:26:17;96.07;;;46.72;;
46815;SDS011;32787;53.316;8.670;2023-02-16T15:28:58;93.35;;;45.90;;
46815;SDS011;32787;53.316;8.670;2023-02-16T15:31:35;82.18;;;44.20;;
46815;SDS011;32787;53.316;8.670;2023-02-16T15:34:06;92.65;;;44.85;;
46815;SDS011;32787;53.316;8.670;2023-02-16T15:36:37;96.15;;;46.45;;
46815;SDS011;32787;53.316;8.670;2023-02-16T15:39:14;83.75;;;43.75;;
46815;SDS011;32787;53.316;8.670;2023-02-16T15:41:49;90.82;;;45.80;;
46815;SDS011;32787;53.316;8.670;2023-02-16T15:44:27;87.13;;;44.03;;
46815;SDS011;32787;53.316;8.670;2023-02-16T15:47:05;87.10;;;42.83;;
46815;SDS011;32787;53.316;8.670;2023-02-16T15:49:42;90.00;;;44.40;;
46815;SDS011;32787;53.316;8.670;2023-02-16T15:52:13;85.28;;;43.80;;
46815;SDS011;32787;53.316;8.670;2023-02-16T15:54:52;85.10;;;42.15;;
46815;SDS011;32787;53.316;8.670;2023-02-16T15:57:20;78.38;;;44.00;;
46815;SDS011;32787;53.316;8.670;2023-02-16T16:00:20;82.80;;;41.40;;
46815;SDS011;32787;53.316;8.670;2023-02-16T16:02:52;88.93;;;43.33;;
46815;SDS011;32787;53.316;8.670;2023-02-16T16:05:23;92.00;;;44.45;;
46815;SDS011;32787;53.316;8.670;2023-02-16T16:07:57;81.30;;;40.85;;
46815;SDS011;32787;53.316;8.670;2023-02-16T16:10:25;88.20;;;43.03;;
46815;SDS011;32787;53.316;8.670;2023-02-16T16:13:01;84.22;;;41.80;;
46815;SDS011;32787;53.316;8.670;2023-02-16T16:15:33;75.97;;;41.42;;
46815;SDS011;32787;53.316;8.670;2023-02-16T16:18:04;80.95;;;42.05;;
46815;SDS011;32787;53.316;8.670;2023-02-16T16:23:00;86.80;;;42.83;;
46815;SDS011;32787;53.316;8.670;2023-02-16T16:27:59;76.32;;;41.13;;
46815;SDS011;32787;53.316;8.670;2023-02-16T16:30:29;79.70;;;39.72;;
46815;SDS011;32787;53.316;8.670;2023-02-16T16:33:10;80.63;;;40.58;;
46815;SDS011;32787;53.316;8.670;2023-02-16T16:38:06;78.32;;;40.75;;
46815;SDS011;32787;53.316;8.670;2023-02-16T16:40:50;76.15;;;40.50;;
46815;SDS011;32787;53.316;8.670;2023-02-16T16:43:18;80.70;;;42.38;;
46815;SDS011;32787;53.316;8.670;2023-02-16T16:45:46;75.25;;;38.42;;
46815;SDS011;32787;53.316;8.670;2023-02-16T16:48:26;73.18;;;38.65;;
46815;SDS011;32787;53.316;8.670;2023-02-16T16:51:18;75.88;;;38.58;;
46815;SDS011;32787;53.316;8.670;2023-02-16T16:53:59;76.63;;;39.20;;
46815;SDS011;32787;53.316;8.670;2023-02-16T16:56:28;75.32;;;40.55;;
46815;SDS011;32787;53.316;8.670;2023-02-16T16:58:55;79.20;;;39.42;;
46815;SDS011;32787;53.316;8.670;2023-02-16T17:01:22;77.07;;;38.42;;
46815;SDS011;32787;53.316;8.670;2023-02-16T17:03:49;79.30;;;38.45;;
46815;SDS011;32787;53.316;8.670;2023-02-16T17:06:15;72.82;;;38.13;;
46815;SDS011;32787;53.316;8.670;2023-02-16T17:08:42;76.60;;;37.30;;
46815;SDS011;32787;53.316;8.670;2023-02-16T17:13:43;77.05;;;38.30;;
46815;SDS011;32787;53.316;8.670;2023-02-16T17:16:12;74.15;;;40.45;;
46815;SDS011;32787;53.316;8.670;2023-02-16T17:18:42;77.90;;;40.03;;
46815;SDS011;32787;53.316;8.670;2023-02-16T17:21:12;78.80;;;40.67;;
46815;SDS011;32787;53.316;8.670;2023-02-16T17:23:37;76.95;;;39.67;;
46815;SDS011;32787;53.316;8.670;2023-02-16T17:26:06;82.22;;;40.00;;
46815;SDS011;32787;53.316;8.670;2023-02-16T17:28:32;78.75;;;39.40;;
46815;SDS011;32787;53.316;8.670;2023-02-16T17:31:04;77.68;;;39.22;;
46815;SDS011;32787;53.316;8.670;2023-02-16T17:33:31;81.35;;;40.47;;
46815;SDS011;32787;53.316;8.670;2023-02-16T17:35:57;85.43;;;39.83;;
46815;SDS011;32787;53.316;8.670;2023-02-16T17:38:23;76.13;;;39.13;;
46815;SDS011;32787;53.316;8.670;2023-02-16T17:40:50;81.10;;;40.33;;
46815;SDS011;32787;53.316;8.670;2023-02-16T17:43:17;84.30;;;40.78;;
46815;SDS011;32787;53.316;8.670;2023-02-16T17:45:44;82.95;;;40.25;;